sensor_id;sensor_type;location;lat;lon;timestamp;P1;durP1;ratioP1;P2;durP2;ratioP2
85472;SDS011;75874;41.386;22.136;2024-02-15T00:00:15;12.27;;;7.88;;
85472;SDS011;75874;41.386;22.136;2024-02-15T00:05:39;14.10;;;9.20;;
85472;SDS011;75874;41.386;22.136;2024-02-15T00:08:04;16.63;;;8.10;;
85472;SDS011;75874;41.386;22.136;2024-02-15T00:10:31;14.10;;;8.70;;
85472;SDS011;75874;41.386;22.136;2024-02-15T00:12:57;13.30;;;8.43;;
85472;SDS011;75874;41.386;22.136;2024-02-15T00:15:23;14.88;;;8.80;;
85472;SDS011;75874;41.386;22.136;2024-02-15T00:17:49;13.57;;;6.93;;
85472;SDS011;75874;41.386;22.136;2024-02-15T00:20:15;11.38;;;8.10;;
85472;SDS011;75874;41.386;22.136;2024-02-15T00:22:43;13.65;;;8.27;;
85472;SDS011;75874;41.386;22.136;2024-02-15T00:25:09;12.20;;;7.93;;
85472;SDS011;75874;41.386;22.136;2024-02-15T00:27:36;15.57;;;8.70;;
85472;SDS011;75874;41.386;22.136;2024-02-15T00:30:03;10.70;;;7.00;;
85472;SDS011;75874;41.386;22.136;2024-02-15T00:35:32;13.57;;;9.55;;
85472;SDS011;75874;41.386;22.136;2024-02-15T00:37:58;13.35;;;8.80;;
85472;SDS011;75874;41.386;22.136;2024-02-15T00:40:24;14.27;;;8.65;;
85472;SDS011;75874;41.386;22.136;2024-02-15T00:42:49;9.95;;;7.20;;
85472;SDS011;75874;41.386;22.136;2024-02-15T00:45:15;13.48;;;9.38;;
85472;SDS011;75874;41.386;22.136;2024-02-15T00:47:41;10.60;;;6.97;;
85472;SDS011;75874;41.386;22.136;2024-02-15T00:50:08;12.20;;;8.48;;
85472;SDS011;75874;41.386;22.136;2024-02-15T00:52:35;15.02;;;8.35;;
85472;SDS011;75874;41.386;22.136;2024-02-15T01:01:07;15.88;;;7.45;;
85472;SDS011;75874;41.386;22.136;2024-02-15T01:03:34;12.07;;;7.40;;
85472;SDS011;75874;41.386;22.136;2024-02-15T01:06:00;15.13;;;9.07;;
85472;SDS011;75874;41.386;22.136;2024-02-15T01:08:26;13.10;;;7.68;;
85472;SDS011;75874;41.386;22.136;2024-02-15T01:10:51;14.63;;;8.05;;
85472;SDS011;75874;41.386;22.136;2024-02-15T01:13:18;11.00;;;6.85;;
85472;SDS011;75874;41.386;22.136;2024-02-15T01:15:44;12.30;;;7.35;;
85472;SDS011;75874;41.386;22.136;2024-02-15T01:18:11;10.80;;;6.82;;
85472;SDS011;75874;41.386;22.136;2024-02-15T01:20:37;15.25;;;8.77;;
85472;SDS011;75874;41.386;22.136;2024-02-15T01:23:03;11.75;;;8.23;;
85472;SDS011;75874;41.386;22.136;2024-02-15T01:25:30;13.23;;;7.50;;
85472;SDS011;75874;41.386;22.136;2024-02-15T01:27:56;12.00;;;6.88;;
85472;SDS011;75874;41.386;22.136;2024-02-15T01:30:21;13.38;;;7.75;;
85472;SDS011;75874;41.386;22.136;2024-02-15T01:32:47;13.98;;;8.65;;
85472;SDS011;75874;41.386;22.136;2024-02-15T01:35:13;10.40;;;6.78;;
85472;SDS011;75874;41.386;22.136;2024-02-15T01:37:39;12.07;;;8.63;;
85472;SDS011;75874;41.386;22.136;2024-02-15T01:40:05;14.48;;;7.82;;
85472;SDS011;75874;41.386;22.136;2024-02-15T01:42:33;18.38;;;8.25;;
85472;SDS011;75874;41.386;22.136;2024-02-15T01:44:59;11.20;;;7.18;;
85472;SDS011;75874;41.386;22.136;2024-02-15T01:47:25;12.30;;;7.78;;
85472;SDS011;75874;41.386;22.136;2024-02-15T01:49:51;11.25;;;7.88;;
85472;SDS011;75874;41.386;22.136;2024-02-15T01:52:18;15.68;;;8.15;;
85472;SDS011;75874;41.386;22.136;2024-02-15T01:54:44;14.63;;;8.15;;
85472;SDS011;75874;41.386;22.136;2024-02-15T01:57:11;13.95;;;7.75;;
85472;SDS011;75874;41.386;22.136;2024-02-15T01:59:36;11.13;;;7.43;;
85472;SDS011;75874;41.386;22.136;2024-02-15T02:02:02;14.05;;;8.52;;
85472;SDS011;75874;41.386;22.136;2024-02-15T02:04:33;14.13;;;8.35;;
85472;SDS011;75874;41.386;22.136;2024-02-15T02:06:59;15.05;;;8.95;;
85472;SDS011;75874;41.386;22.136;2024-02-15T02:09:25;13.00;;;6.75;;
85472;SDS011;75874;41.386;22.136;2024-02-15T02:11:51;15.93;;;8.38;;
85472;SDS011;75874;41.386;22.136;2024-02-15T02:14:17;15.02;;;9.13;;
85472;SDS011;75874;41.386;22.136;2024-02-15T02:19:11;12.80;;;7.65;;
85472;SDS011;75874;41.386;22.136;2024-02-15T02:21:37;12.98;;;7.95;;
85472;SDS011;75874;41.386;22.136;2024-02-15T02:24:13;13.90;;;7.20;;
85472;SDS011;75874;41.386;22.136;2024-02-15T02:26:46;11.05;;;6.53;;
85472;SDS011;75874;41.386;22.136;2024-02-15T02:29:12;15.98;;;10.10;;
85472;SDS011;75874;41.386;22.136;2024-02-15T02:31:39;13.50;;;9.00;;
85472;SDS011;75874;41.386;22.136;2024-02-15T02:37:26;14.70;;;7.40;;
85472;SDS011;75874;41.386;22.136;2024-02-15T02:39:52;15.13;;;8.60;;
85472;SDS011;75874;41.386;22.136;2024-02-15T02:42:18;10.02;;;7.45;;
85472;SDS011;75874;41.386;22.136;2024-02-15T02:44:43;15.18;;;8.73;;
85472;SDS011;75874;41.386;22.136;2024-02-15T02:47:10;10.32;;;7.28;;
85472;SDS011;75874;41.386;22.136;2024-02-15T02:49:35;14.40;;;7.78;;
85472;SDS011;75874;41.386;22.136;2024-02-15T02:52:02;11.48;;;7.43;;
85472;SDS011;75874;41.386;22.136;2024-02-15T02:54:28;12.65;;;7.88;;
85472;SDS011;75874;41.386;22.136;2024-02-15T02:56:54;11.25;;;7.40;;
85472;SDS011;75874;41.386;22.136;2024-02-15T02:59:20;13.50;;;8.95;;
85472;SDS011;75874;41.386;22.136;2024-02-15T03:01:46;10.20;;;6.82;;
85472;SDS011;75874;41.386;22.136;2024-02-15T03:07:21;14.10;;;8.10;;
85472;SDS011;75874;41.386;22.136;2024-02-15T03:09:49;14.35;;;8.40;;
85472;SDS011;75874;41.386;22.136;2024-02-15T03:12:14;14.30;;;8.25;;
85472;SDS011;75874;41.386;22.136;2024-02-15T03:14:43;11.85;;;7.35;;
85472;SDS011;75874;41.386;22.136;2024-02-15T03:17:08;10.70;;;6.78;;
85472;SDS011;75874;41.386;22.136;2024-02-15T03:19:34;15.93;;;9.18;;
85472;SDS011;75874;41.386;22.136;2024-02-15T03:22:00;11.35;;;8.05;;
85472;SDS011;75874;41.386;22.136;2024-02-15T03:27:19;14.18;;;7.65;;
85472;SDS011;75874;41.386;22.136;2024-02-15T03:29:48;10.38;;;6.15;;
85472;SDS011;75874;41.386;22.136;2024-02-15T03:32:14;13.20;;;7.55;;
85472;SDS011;75874;41.386;22.136;2024-02-15T03:34:40;12.43;;;7.60;;
85472;SDS011;75874;41.386;22.136;2024-02-15T03:37:07;13.27;;;7.57;;
85472;SDS011;75874;41.386;22.136;2024-02-15T03:39:34;12.13;;;7.50;;
85472;SDS011;75874;41.386;22.136;2024-02-15T03:42:00;11.73;;;7.57;;
85472;SDS011;75874;41.386;22.136;2024-02-15T03:44:26;13.57;;;7.97;;
85472;SDS011;75874;41.386;22.136;2024-02-15T03:49:41;19.05;;;9.15;;
85472;SDS011;75874;41.386;22.136;2024-02-15T03:52:07;13.60;;;7.25;;
85472;SDS011;75874;41.386;22.136;2024-02-15T03:54:36;13.05;;;7.22;;
85472;SDS011;75874;41.386;22.136;2024-02-15T03:57:02;15.93;;;7.32;;
85472;SDS011;75874;41.386;22.136;2024-02-15T03:59:28;13.52;;;7.65;;
85472;SDS011;75874;41.386;22.136;2024-02-15T04:01:54;13.45;;;7.55;;
85472;SDS011;75874;41.386;22.136;2024-02-15T04:04:20;14.50;;;8.60;;
85472;SDS011;75874;41.386;22.136;2024-02-15T04:06:49;23.33;;;8.95;;
85472;SDS011;75874;41.386;22.136;2024-02-15T04:09:16;12.23;;;7.63;;
85472;SDS011;75874;41.386;22.136;2024-02-15T04:11:46;11.57;;;7.65;;
85472;SDS011;75874;41.386;22.136;2024-02-15T04:14:16;13.68;;;7.40;;
85472;SDS011;75874;41.386;22.136;2024-02-15T04:16:43;12.52;;;8.13;;
85472;SDS011;75874;41.386;22.136;2024-02-15T04:19:10;11.85;;;7.22;;
85472;SDS011;75874;41.386;22.136;2024-02-15T04:21:36;13.63;;;7.95;;
85472;SDS011;75874;41.386;22.136;2024-02-15T04:24:01;11.55;;;7.68;;
85472;SDS011;75874;41.386;22.136;2024-02-15T04:26:27;11.60;;;7.70;;
85472;SDS011;75874;41.386;22.136;2024-02-15T04:31:47;12.55;;;7.95;;
85472;SDS011;75874;41.386;22.136;2024-02-15T04:34:16;13.10;;;8.52;;
85472;SDS011;75874;41.386;22.136;2024-02-15T04:36:43;13.98;;;7.43;;
85472;SDS011;75874;41.386;22.136;2024-02-15T04:39:15;21.33;;;8.95;;
85472;SDS011;75874;41.386;22.136;2024-02-15T04:41:49;16.98;;;8.40;;
85472;SDS011;75874;41.386;22.136;2024-02-15T04:44:20;13.07;;;8.52;;
85472;SDS011;75874;41.386;22.136;2024-02-15T04:46:46;16.42;;;7.85;;
85472;SDS011;75874;41.386;22.136;2024-02-15T04:49:13;14.55;;;7.57;;
85472;SDS011;75874;41.386;22.136;2024-02-15T04:51:39;13.15;;;8.50;;
85472;SDS011;75874;41.386;22.136;2024-02-15T04:57:43;13.82;;;9.07;;
85472;SDS011;75874;41.386;22.136;2024-02-15T05:00:09;12.68;;;7.70;;
85472;SDS011;75874;41.386;22.136;2024-02-15T05:02:39;15.70;;;8.45;;
85472;SDS011;75874;41.386;22.136;2024-02-15T05:05:09;12.63;;;7.65;;
85472;SDS011;75874;41.386;22.136;2024-02-15T05:07:35;12.90;;;7.75;;
85472;SDS011;75874;41.386;22.136;2024-02-15T05:10:05;11.90;;;7.65;;
85472;SDS011;75874;41.386;22.136;2024-02-15T05:12:32;13.00;;;8.63;;
85472;SDS011;75874;41.386;22.136;2024-02-15T05:17:27;11.80;;;7.70;;
85472;SDS011;75874;41.386;22.136;2024-02-15T05:19:56;14.10;;;8.23;;
85472;SDS011;75874;41.386;22.136;2024-02-15T05:22:25;11.80;;;6.45;;
85472;SDS011;75874;41.386;22.136;2024-02-15T05:24:54;12.23;;;7.47;;
85472;SDS011;75874;41.386;22.136;2024-02-15T05:27:20;11.27;;;6.55;;
85472;SDS011;75874;41.386;22.136;2024-02-15T05:29:46;14.43;;;8.55;;
85472;SDS011;75874;41.386;22.136;2024-02-15T05:32:11;7.88;;;5.35;;
85472;SDS011;75874;41.386;22.136;2024-02-15T05:34:39;14.35;;;8.20;;
85472;SDS011;75874;41.386;22.136;2024-02-15T05:37:05;12.77;;;7.20;;
85472;SDS011;75874;41.386;22.136;2024-02-15T05:39:32;12.52;;;7.00;;
85472;SDS011;75874;41.386;22.136;2024-02-15T05:41:57;13.30;;;8.10;;
85472;SDS011;75874;41.386;22.136;2024-02-15T05:44:26;10.93;;;7.38;;
85472;SDS011;75874;41.386;22.136;2024-02-15T05:46:51;13.18;;;8.70;;
85472;SDS011;75874;41.386;22.136;2024-02-15T05:49:17;13.27;;;8.18;;
85472;SDS011;75874;41.386;22.136;2024-02-15T05:51:43;13.75;;;7.63;;
85472;SDS011;75874;41.386;22.136;2024-02-15T05:54:10;13.75;;;7.95;;
85472;SDS011;75874;41.386;22.136;2024-02-15T05:56:36;15.80;;;8.23;;
85472;SDS011;75874;41.386;22.136;2024-02-15T05:59:01;14.45;;;7.97;;
85472;SDS011;75874;41.386;22.136;2024-02-15T06:01:35;13.02;;;7.18;;
85472;SDS011;75874;41.386;22.136;2024-02-15T06:04:04;12.10;;;7.93;;
85472;SDS011;75874;41.386;22.136;2024-02-15T06:06:33;14.82;;;8.43;;
85472;SDS011;75874;41.386;22.136;2024-02-15T06:08:59;16.63;;;8.32;;
85472;SDS011;75874;41.386;22.136;2024-02-15T06:11:26;14.63;;;8.68;;
85472;SDS011;75874;41.386;22.136;2024-02-15T06:13:52;13.25;;;8.07;;
85472;SDS011;75874;41.386;22.136;2024-02-15T06:16:18;11.18;;;6.57;;
85472;SDS011;75874;41.386;22.136;2024-02-15T06:18:43;17.40;;;8.85;;
85472;SDS011;75874;41.386;22.136;2024-02-15T06:21:09;13.10;;;8.00;;
85472;SDS011;75874;41.386;22.136;2024-02-15T06:23:35;15.43;;;7.35;;
85472;SDS011;75874;41.386;22.136;2024-02-15T06:26:01;15.90;;;8.90;;
85472;SDS011;75874;41.386;22.136;2024-02-15T06:28:27;16.73;;;7.88;;
85472;SDS011;75874;41.386;22.136;2024-02-15T06:31:13;13.20;;;7.88;;
85472;SDS011;75874;41.386;22.136;2024-02-15T06:33:57;12.63;;;7.60;;
85472;SDS011;75874;41.386;22.136;2024-02-15T06:37:17;11.63;;;6.90;;
85472;SDS011;75874;41.386;22.136;2024-02-15T06:39:52;14.52;;;8.40;;
85472;SDS011;75874;41.386;22.136;2024-02-15T06:42:17;13.63;;;7.60;;
85472;SDS011;75874;41.386;22.136;2024-02-15T06:44:45;13.88;;;7.68;;
85472;SDS011;75874;41.386;22.136;2024-02-15T06:47:12;14.15;;;7.53;;
85472;SDS011;75874;41.386;22.136;2024-02-15T06:49:38;13.50;;;7.53;;
85472;SDS011;75874;41.386;22.136;2024-02-15T06:52:08;11.32;;;7.25;;
85472;SDS011;75874;41.386;22.136;2024-02-15T06:54:43;15.55;;;8.23;;
85472;SDS011;75874;41.386;22.136;2024-02-15T06:57:11;15.48;;;7.30;;
85472;SDS011;75874;41.386;22.136;2024-02-15T06:59:36;11.93;;;6.47;;
85472;SDS011;75874;41.386;22.136;2024-02-15T07:02:04;14.18;;;6.85;;
85472;SDS011;75874;41.386;22.136;2024-02-15T07:04:33;11.35;;;6.97;;
85472;SDS011;75874;41.386;22.136;2024-02-15T07:06:59;13.25;;;6.40;;
85472;SDS011;75874;41.386;22.136;2024-02-15T07:09:27;12.00;;;7.38;;
85472;SDS011;75874;41.386;22.136;2024-02-15T07:11:53;12.82;;;8.18;;
85472;SDS011;75874;41.386;22.136;2024-02-15T07:14:19;14.00;;;7.72;;
85472;SDS011;75874;41.386;22.136;2024-02-15T07:16:45;15.57;;;8.73;;
85472;SDS011;75874;41.386;22.136;2024-02-15T07:19:11;19.42;;;8.77;;
85472;SDS011;75874;41.386;22.136;2024-02-15T07:21:38;12.68;;;7.97;;
85472;SDS011;75874;41.386;22.136;2024-02-15T07:24:04;16.90;;;8.43;;
85472;SDS011;75874;41.386;22.136;2024-02-15T07:26:30;10.60;;;6.75;;
85472;SDS011;75874;41.386;22.136;2024-02-15T07:28:56;13.32;;;7.13;;
85472;SDS011;75874;41.386;22.136;2024-02-15T07:31:22;13.50;;;8.40;;
85472;SDS011;75874;41.386;22.136;2024-02-15T07:33:52;12.50;;;7.55;;
85472;SDS011;75874;41.386;22.136;2024-02-15T07:36:21;12.40;;;7.57;;
85472;SDS011;75874;41.386;22.136;2024-02-15T07:38:48;10.82;;;7.15;;
85472;SDS011;75874;41.386;22.136;2024-02-15T07:44:52;14.13;;;8.77;;
85472;SDS011;75874;41.386;22.136;2024-02-15T07:47:18;12.90;;;7.20;;
85472;SDS011;75874;41.386;22.136;2024-02-15T07:49:46;15.43;;;8.60;;
85472;SDS011;75874;41.386;22.136;2024-02-15T07:52:12;10.48;;;6.53;;
85472;SDS011;75874;41.386;22.136;2024-02-15T07:54:38;10.27;;;6.35;;
85472;SDS011;75874;41.386;22.136;2024-02-15T07:57:04;10.77;;;6.78;;
85472;SDS011;75874;41.386;22.136;2024-02-15T07:59:30;15.52;;;7.72;;
85472;SDS011;75874;41.386;22.136;2024-02-15T08:01:56;11.05;;;7.13;;
85472;SDS011;75874;41.386;22.136;2024-02-15T08:04:23;14.93;;;7.80;;
85472;SDS011;75874;41.386;22.136;2024-02-15T08:06:53;10.90;;;6.68;;
85472;SDS011;75874;41.386;22.136;2024-02-15T08:09:19;12.70;;;7.47;;
85472;SDS011;75874;41.386;22.136;2024-02-15T08:11:47;13.20;;;6.75;;
85472;SDS011;75874;41.386;22.136;2024-02-15T08:14:14;12.43;;;7.75;;
85472;SDS011;75874;41.386;22.136;2024-02-15T08:16:40;11.85;;;7.93;;
85472;SDS011;75874;41.386;22.136;2024-02-15T08:19:06;13.38;;;8.00;;
85472;SDS011;75874;41.386;22.136;2024-02-15T08:21:33;14.13;;;8.55;;
85472;SDS011;75874;41.386;22.136;2024-02-15T08:24:02;12.57;;;7.72;;
85472;SDS011;75874;41.386;22.136;2024-02-15T08:26:32;13.55;;;8.73;;
85472;SDS011;75874;41.386;22.136;2024-02-15T08:29:01;11.93;;;6.68;;
85472;SDS011;75874;41.386;22.136;2024-02-15T08:31:28;13.88;;;7.03;;
85472;SDS011;75874;41.386;22.136;2024-02-15T08:33:56;13.63;;;7.88;;
85472;SDS011;75874;41.386;22.136;2024-02-15T08:36:21;11.05;;;6.68;;
85472;SDS011;75874;41.386;22.136;2024-02-15T08:38:47;11.70;;;7.03;;
85472;SDS011;75874;41.386;22.136;2024-02-15T08:41:15;13.30;;;7.10;;
85472;SDS011;75874;41.386;22.136;2024-02-15T08:43:43;14.32;;;7.75;;
85472;SDS011;75874;41.386;22.136;2024-02-15T08:46:09;12.48;;;7.50;;
85472;SDS011;75874;41.386;22.136;2024-02-15T08:48:35;15.18;;;7.80;;
85472;SDS011;75874;41.386;22.136;2024-02-15T08:51:01;11.93;;;6.50;;
85472;SDS011;75874;41.386;22.136;2024-02-15T08:56:37;14.18;;;7.20;;
85472;SDS011;75874;41.386;22.136;2024-02-15T08:59:03;13.80;;;7.38;;
85472;SDS011;75874;41.386;22.136;2024-02-15T09:01:28;15.70;;;7.97;;
85472;SDS011;75874;41.386;22.136;2024-02-15T09:03:55;13.13;;;7.00;;
85472;SDS011;75874;41.386;22.136;2024-02-15T09:06:21;11.13;;;7.18;;
85472;SDS011;75874;41.386;22.136;2024-02-15T09:08:48;14.65;;;7.65;;
85472;SDS011;75874;41.386;22.136;2024-02-15T09:11:13;19.20;;;7.80;;
85472;SDS011;75874;41.386;22.136;2024-02-15T09:13:39;11.65;;;7.10;;
85472;SDS011;75874;41.386;22.136;2024-02-15T09:16:05;13.90;;;8.02;;
85472;SDS011;75874;41.386;22.136;2024-02-15T09:18:31;14.25;;;8.65;;
85472;SDS011;75874;41.386;22.136;2024-02-15T09:20:58;11.93;;;6.68;;
85472;SDS011;75874;41.386;22.136;2024-02-15T09:23:24;12.02;;;7.25;;
85472;SDS011;75874;41.386;22.136;2024-02-15T09:25:50;10.02;;;6.93;;
85472;SDS011;75874;41.386;22.136;2024-02-15T09:28:20;11.23;;;7.10;;
85472;SDS011;75874;41.386;22.136;2024-02-15T09:30:48;9.65;;;5.72;;
85472;SDS011;75874;41.386;22.136;2024-02-15T09:33:17;11.35;;;6.35;;
85472;SDS011;75874;41.386;22.136;2024-02-15T09:38:29;13.82;;;6.60;;
85472;SDS011;75874;41.386;22.136;2024-02-15T09:40:55;11.88;;;7.07;;
85472;SDS011;75874;41.386;22.136;2024-02-15T09:43:20;15.32;;;7.75;;
85472;SDS011;75874;41.386;22.136;2024-02-15T09:45:50;14.77;;;7.68;;
85472;SDS011;75874;41.386;22.136;2024-02-15T09:48:15;13.90;;;8.10;;
85472;SDS011;75874;41.386;22.136;2024-02-15T09:50:43;11.02;;;6.90;;
85472;SDS011;75874;41.386;22.136;2024-02-15T09:53:13;11.23;;;6.60;;
85472;SDS011;75874;41.386;22.136;2024-02-15T09:55:40;12.82;;;7.05;;
85472;SDS011;75874;41.386;22.136;2024-02-15T09:58:07;13.93;;;7.25;;
85472;SDS011;75874;41.386;22.136;2024-02-15T10:00:34;11.95;;;6.80;;
85472;SDS011;75874;41.386;22.136;2024-02-15T10:03:00;10.27;;;6.75;;
85472;SDS011;75874;41.386;22.136;2024-02-15T10:05:31;12.18;;;6.50;;
85472;SDS011;75874;41.386;22.136;2024-02-15T10:07:57;10.70;;;6.43;;
85472;SDS011;75874;41.386;22.136;2024-02-15T10:10:27;9.40;;;5.93;;
85472;SDS011;75874;41.386;22.136;2024-02-15T10:12:53;10.95;;;6.32;;
85472;SDS011;75874;41.386;22.136;2024-02-15T10:15:38;9.82;;;6.45;;
85472;SDS011;75874;41.386;22.136;2024-02-15T10:18:10;13.00;;;7.40;;
85472;SDS011;75874;41.386;22.136;2024-02-15T10:20:37;11.50;;;8.27;;
85472;SDS011;75874;41.386;22.136;2024-02-15T10:25:34;11.10;;;7.30;;
85472;SDS011;75874;41.386;22.136;2024-02-15T10:28:07;11.88;;;7.38;;
85472;SDS011;75874;41.386;22.136;2024-02-15T10:30:36;12.98;;;8.90;;
85472;SDS011;75874;41.386;22.136;2024-02-15T10:33:18;15.65;;;8.85;;
85472;SDS011;75874;41.386;22.136;2024-02-15T10:35:46;14.20;;;9.07;;
85472;SDS011;75874;41.386;22.136;2024-02-15T10:38:11;16.65;;;9.98;;
85472;SDS011;75874;41.386;22.136;2024-02-15T10:40:38;12.23;;;8.57;;
85472;SDS011;75874;41.386;22.136;2024-02-15T10:43:08;15.88;;;9.63;;
85472;SDS011;75874;41.386;22.136;2024-02-15T10:45:38;11.75;;;8.07;;
85472;SDS011;75874;41.386;22.136;2024-02-15T10:48:12;12.95;;;7.55;;
85472;SDS011;75874;41.386;22.136;2024-02-15T10:50:41;12.10;;;8.43;;
85472;SDS011;75874;41.386;22.136;2024-02-15T10:53:21;11.63;;;8.13;;
85472;SDS011;75874;41.386;22.136;2024-02-15T10:56:00;14.50;;;7.88;;
85472;SDS011;75874;41.386;22.136;2024-02-15T10:58:49;9.35;;;7.50;;
85472;SDS011;75874;41.386;22.136;2024-02-15T11:01:18;11.15;;;6.90;;
85472;SDS011;75874;41.386;22.136;2024-02-15T11:03:51;13.95;;;7.90;;
85472;SDS011;75874;41.386;22.136;2024-02-15T11:06:21;9.20;;;6.47;;
85472;SDS011;75874;41.386;22.136;2024-02-15T11:08:51;10.40;;;7.20;;
85472;SDS011;75874;41.386;22.136;2024-02-15T11:11:17;8.93;;;7.22;;
85472;SDS011;75874;41.386;22.136;2024-02-15T11:13:46;9.23;;;6.40;;
85472;SDS011;75874;41.386;22.136;2024-02-15T11:19:09;7.78;;;6.30;;
85472;SDS011;75874;41.386;22.136;2024-02-15T11:21:54;9.77;;;6.72;;
85472;SDS011;75874;41.386;22.136;2024-02-15T11:24:28;10.75;;;6.50;;
85472;SDS011;75874;41.386;22.136;2024-02-15T11:27:04;10.23;;;6.63;;
85472;SDS011;75874;41.386;22.136;2024-02-15T11:35:10;9.15;;;7.55;;
85472;SDS011;75874;41.386;22.136;2024-02-15T11:41:00;10.02;;;6.63;;
85472;SDS011;75874;41.386;22.136;2024-02-15T11:43:10;9.00;;;6.55;;
85472;SDS011;75874;41.386;22.136;2024-02-15T11:46:26;8.32;;;6.10;;
85472;SDS011;75874;41.386;22.136;2024-02-15T11:48:57;8.18;;;6.45;;
85472;SDS011;75874;41.386;22.136;2024-02-15T11:51:27;9.45;;;6.63;;
85472;SDS011;75874;41.386;22.136;2024-02-15T11:53:58;9.82;;;7.38;;
85472;SDS011;75874;41.386;22.136;2024-02-15T11:56:57;9.70;;;7.47;;
85472;SDS011;75874;41.386;22.136;2024-02-15T11:59:41;8.70;;;6.65;;
85472;SDS011;75874;41.386;22.136;2024-02-15T12:02:26;10.98;;;7.22;;
85472;SDS011;75874;41.386;22.136;2024-02-15T12:05:11;10.32;;;6.55;;
85472;SDS011;75874;41.386;22.136;2024-02-15T12:07:55;8.77;;;6.22;;
85472;SDS011;75874;41.386;22.136;2024-02-15T12:10:39;8.32;;;6.10;;
85472;SDS011;75874;41.386;22.136;2024-02-15T12:13:23;8.38;;;5.55;;
85472;SDS011;75874;41.386;22.136;2024-02-15T12:16:07;8.25;;;5.75;;
85472;SDS011;75874;41.386;22.136;2024-02-15T12:18:51;10.55;;;8.38;;
85472;SDS011;75874;41.386;22.136;2024-02-15T12:21:23;8.48;;;6.00;;
85472;SDS011;75874;41.386;22.136;2024-02-15T12:23:53;9.88;;;6.00;;
85472;SDS011;75874;41.386;22.136;2024-02-15T12:26:19;8.77;;;6.07;;
85472;SDS011;75874;41.386;22.136;2024-02-15T12:28:52;7.88;;;6.47;;
85472;SDS011;75874;41.386;22.136;2024-02-15T12:31:23;8.30;;;6.65;;
85472;SDS011;75874;41.386;22.136;2024-02-15T12:34:08;8.30;;;6.32;;
85472;SDS011;75874;41.386;22.136;2024-02-15T12:36:34;8.32;;;6.47;;
85472;SDS011;75874;41.386;22.136;2024-02-15T12:39:03;8.57;;;5.90;;
85472;SDS011;75874;41.386;22.136;2024-02-15T12:41:39;6.55;;;5.75;;
85472;SDS011;75874;41.386;22.136;2024-02-15T12:44:07;9.15;;;5.80;;
85472;SDS011;75874;41.386;22.136;2024-02-15T12:46:34;9.32;;;5.90;;
85472;SDS011;75874;41.386;22.136;2024-02-15T12:49:09;9.63;;;6.07;;
85472;SDS011;75874;41.386;22.136;2024-02-15T12:51:53;7.47;;;5.82;;
85472;SDS011;75874;41.386;22.136;2024-02-15T12:54:39;8.25;;;5.75;;
85472;SDS011;75874;41.386;22.136;2024-02-15T12:59:35;11.57;;;5.45;;
85472;SDS011;75874;41.386;22.136;2024-02-15T13:05:26;6.97;;;5.68;;
85472;SDS011;75874;41.386;22.136;2024-02-15T13:07:53;7.78;;;5.68;;
85472;SDS011;75874;41.386;22.136;2024-02-15T13:10:31;6.20;;;5.05;;
85472;SDS011;75874;41.386;22.136;2024-02-15T13:12:57;7.47;;;5.13;;
85472;SDS011;75874;41.386;22.136;2024-02-15T13:15:23;7.00;;;5.60;;
85472;SDS011;75874;41.386;22.136;2024-02-15T13:17:57;7.43;;;5.50;;
85472;SDS011;75874;41.386;22.136;2024-02-15T13:20:24;5.90;;;4.85;;
85472;SDS011;75874;41.386;22.136;2024-02-15T13:23:04;6.75;;;4.93;;
85472;SDS011;75874;41.386;22.136;2024-02-15T13:25:37;7.00;;;5.22;;
85472;SDS011;75874;41.386;22.136;2024-02-15T13:28:05;6.47;;;5.20;;
85472;SDS011;75874;41.386;22.136;2024-02-15T13:30:31;9.13;;;5.80;;
85472;SDS011;75874;41.386;22.136;2024-02-15T13:32:57;8.25;;;5.22;;
85472;SDS011;75874;41.386;22.136;2024-02-15T13:35:23;5.88;;;4.90;;
85472;SDS011;75874;41.386;22.136;2024-02-15T13:37:52;6.05;;;4.55;;
85472;SDS011;75874;41.386;22.136;2024-02-15T13:40:22;7.93;;;5.10;;
85472;SDS011;75874;41.386;22.136;2024-02-15T13:42:53;6.75;;;4.88;;
85472;SDS011;75874;41.386;22.136;2024-02-15T13:48:05;7.70;;;4.68;;
85472;SDS011;75874;41.386;22.136;2024-02-15T13:50:35;6.07;;;4.55;;
85472;SDS011;75874;41.386;22.136;2024-02-15T13:53:03;7.60;;;5.03;;
85472;SDS011;75874;41.386;22.136;2024-02-15T13:55:29;6.22;;;4.50;;
85472;SDS011;75874;41.386;22.136;2024-02-15T13:57:55;6.10;;;4.38;;
85472;SDS011;75874;41.386;22.136;2024-02-15T14:00:22;6.47;;;4.45;;
85472;SDS011;75874;41.386;22.136;2024-02-15T14:02:48;4.82;;;4.25;;
85472;SDS011;75874;41.386;22.136;2024-02-15T14:05:21;5.50;;;4.30;;
85472;SDS011;75874;41.386;22.136;2024-02-15T14:10:24;5.00;;;3.70;;
85472;SDS011;75874;41.386;22.136;2024-02-15T14:13:00;4.57;;;3.92;;
85472;SDS011;75874;41.386;22.136;2024-02-15T14:15:30;5.53;;;3.70;;
85472;SDS011;75874;41.386;22.136;2024-02-15T14:18:03;5.97;;;4.55;;
85472;SDS011;75874;41.386;22.136;2024-02-15T14:20:30;6.72;;;5.22;;
85472;SDS011;75874;41.386;22.136;2024-02-15T14:22:59;6.43;;;4.47;;
85472;SDS011;75874;41.386;22.136;2024-02-15T14:25:30;8.63;;;5.15;;
85472;SDS011;75874;41.386;22.136;2024-02-15T14:27:59;5.80;;;3.58;;
85472;SDS011;75874;41.386;22.136;2024-02-15T14:30:24;6.57;;;3.85;;
85472;SDS011;75874;41.386;22.136;2024-02-15T14:33:08;4.90;;;3.90;;
85472;SDS011;75874;41.386;22.136;2024-02-15T14:38:07;6.80;;;4.05;;
85472;SDS011;75874;41.386;22.136;2024-02-15T14:40:38;5.03;;;3.33;;
85472;SDS011;75874;41.386;22.136;2024-02-15T14:43:35;6.32;;;3.83;;
85472;SDS011;75874;41.386;22.136;2024-02-15T14:46:01;4.72;;;3.47;;
85472;SDS011;75874;41.386;22.136;2024-02-15T14:48:30;4.95;;;3.70;;
85472;SDS011;75874;41.386;22.136;2024-02-15T14:50:57;6.43;;;3.90;;
85472;SDS011;75874;41.386;22.136;2024-02-15T14:53:23;5.88;;;3.42;;
85472;SDS011;75874;41.386;22.136;2024-02-15T14:55:49;6.10;;;4.03;;
85472;SDS011;75874;41.386;22.136;2024-02-15T14:58:17;5.75;;;3.70;;
85472;SDS011;75874;41.386;22.136;2024-02-15T15:00:43;7.07;;;3.50;;
85472;SDS011;75874;41.386;22.136;2024-02-15T15:06:03;5.22;;;2.95;;
85472;SDS011;75874;41.386;22.136;2024-02-15T15:08:48;4.57;;;3.40;;
85472;SDS011;75874;41.386;22.136;2024-02-15T15:11:32;5.63;;;3.40;;
85472;SDS011;75874;41.386;22.136;2024-02-15T15:14:16;6.32;;;3.47;;
85472;SDS011;75874;41.386;22.136;2024-02-15T15:16:42;5.63;;;3.40;;
85472;SDS011;75874;41.386;22.136;2024-02-15T15:19:08;6.30;;;3.63;;
85472;SDS011;75874;41.386;22.136;2024-02-15T15:21:35;5.40;;;3.42;;
85472;SDS011;75874;41.386;22.136;2024-02-15T15:24:01;6.38;;;3.42;;
85472;SDS011;75874;41.386;22.136;2024-02-15T15:26:27;9.05;;;4.53;;
85472;SDS011;75874;41.386;22.136;2024-02-15T15:28:52;6.15;;;4.00;;
85472;SDS011;75874;41.386;22.136;2024-02-15T15:31:20;6.45;;;3.67;;
85472;SDS011;75874;41.386;22.136;2024-02-15T15:33:46;7.38;;;4.03;;
85472;SDS011;75874;41.386;22.136;2024-02-15T15:36:13;6.68;;;3.85;;
85472;SDS011;75874;41.386;22.136;2024-02-15T15:38:40;7.38;;;3.88;;
85472;SDS011;75874;41.386;22.136;2024-02-15T15:41:07;9.45;;;4.70;;
85472;SDS011;75874;41.386;22.136;2024-02-15T15:43:34;8.73;;;4.35;;
85472;SDS011;75874;41.386;22.136;2024-02-15T15:46:04;11.45;;;5.25;;
85472;SDS011;75874;41.386;22.136;2024-02-15T15:48:30;9.15;;;4.57;;
85472;SDS011;75874;41.386;22.136;2024-02-15T15:50:56;8.57;;;4.50;;